sensor_id;sensor_type;location;lat;lon;timestamp;temperature;humidity
8527;DHT22;4301;48.362;8.478;2022-09-02T00:01:18;11.10;99.90
8527;DHT22;4301;48.362;8.478;2022-09-02T00:03:47;11.00;99.90
8527;DHT22;4301;48.362;8.478;2022-09-02T00:06:15;11.00;99.90
8527;DHT22;4301;48.362;8.478;2022-09-02T00:08:43;11.00;99.90
8527;DHT22;4301;48.362;8.478;2022-09-02T00:11:13;11.00;99.90
8527;DHT22;4301;48.362;8.478;2022-09-02T00:13:41;10.90;99.90
8527;DHT22;4301;48.362;8.478;2022-09-02T00:16:08;10.90;99.90
8527;DHT22;4301;48.362;8.478;2022-09-02T00:18:37;11.00;99.90
8527;DHT22;4301;48.362;8.478;2022-09-02T00:21:05;10.90;99.90
8527;DHT22;4301;48.362;8.478;2022-09-02T00:23:32;10.90;99.90
8527;DHT22;4301;48.362;8.478;2022-09-02T00:26:00;10.80;99.90
8527;DHT22;4301;48.362;8.478;2022-09-02T00:28:27;10.80;99.90
8527;DHT22;4301;48.362;8.478;2022-09-02T00:30:54;10.80;99.90
8527;DHT22;4301;48.362;8.478;2022-09-02T00:33:22;10.80;99.90
8527;DHT22;4301;48.362;8.478;2022-09-02T00:35:51;10.80;99.90
8527;DHT22;4301;48.362;8.478;2022-09-02T00:38:18;10.70;99.90
8527;DHT22;4301;48.362;8.478;2022-09-02T00:40:48;10.70;99.90
8527;DHT22;4301;48.362;8.478;2022-09-02T00:43:24;10.60;99.90
8527;DHT22;4301;48.362;8.478;2022-09-02T00:45:51;10.60;99.90
8527;DHT22;4301;48.362;8.478;2022-09-02T00:48:20;10.50;99.90
8527;DHT22;4301;48.362;8.478;2022-09-02T00:50:48;10.50;99.90
8527;DHT22;4301;48.362;8.478;2022-09-02T00:53:17;10.40;99.90
8527;DHT22;4301;48.362;8.478;2022-09-02T00:55:48;10.50;99.90
8527;DHT22;4301;48.362;8.478;2022-09-02T00:58:19;10.40;99.90
8527;DHT22;4301;48.362;8.478;2022-09-02T01:00:48;10.40;99.90
8527;DHT22;4301;48.362;8.478;2022-09-02T01:03:22;10.40;99.90
8527;DHT22;4301;48.362;8.478;2022-09-02T01:05:51;10.40;99.90
8527;DHT22;4301;48.362;8.478;2022-09-02T01:08:23;10.30;99.90
8527;DHT22;4301;48.362;8.478;2022-09-02T01:10:52;10.30;99.90
8527;DHT22;4301;48.362;8.478;2022-09-02T01:13:22;10.20;99.90
8527;DHT22;4301;48.362;8.478;2022-09-02T01:15:53;10.20;99.90
8527;DHT22;4301;48.362;8.478;2022-09-02T01:18:22;10.20;99.90
8527;DHT22;4301;48.362;8.478;2022-09-02T01:20:51;10.20;99.90
8527;DHT22;4301;48.362;8.478;2022-09-02T01:23:19;10.20;99.90
8527;DHT22;4301;48.362;8.478;2022-09-02T01:25:47;10.20;99.90
8527;DHT22;4301;48.362;8.478;2022-09-02T01:28:17;10.20;99.90
8527;DHT22;4301;48.362;8.478;2022-09-02T01:30:48;10.10;99.90
8527;DHT22;4301;48.362;8.478;2022-09-02T01:33:16;10.10;99.90
8527;DHT22;4301;48.362;8.478;2022-09-02T01:35:43;10.10;99.90
8527;DHT22;4301;48.362;8.478;2022-09-02T01:38:11;10.10;99.90
8527;DHT22;4301;48.362;8.478;2022-09-02T01:40:40;10.10;99.90
8527;DHT22;4301;48.362;8.478;2022-09-02T01:43:09;10.00;99.90
8527;DHT22;4301;48.362;8.478;2022-09-02T01:45:38;10.00;99.90
8527;DHT22;4301;48.362;8.478;2022-09-02T01:48:07;10.10;99.90
8527;DHT22;4301;48.362;8.478;2022-09-02T01:50:36;10.00;99.90
8527;DHT22;4301;48.362;8.478;2022-09-02T01:53:04;9.90;99.90
8527;DHT22;4301;48.362;8.478;2022-09-02T01:55:32;9.80;99.90
8527;DHT22;4301;48.362;8.478;2022-09-02T01:58:01;9.80;99.90
8527;DHT22;4301;48.362;8.478;2022-09-02T02:00:28;9.80;99.90
8527;DHT22;4301;48.362;8.478;2022-09-02T02:02:56;9.70;99.90
8527;DHT22;4301;48.362;8.478;2022-09-02T02:05:23;9.70;99.90
8527;DHT22;4301;48.362;8.478;2022-09-02T02:07:50;9.80;99.90
8527;DHT22;4301;48.362;8.478;2022-09-02T02:10:19;9.70;99.90
8527;DHT22;4301;48.362;8.478;2022-09-02T02:12:47;9.70;99.90
8527;DHT22;4301;48.362;8.478;2022-09-02T02:15:17;9.60;99.90
8527;DHT22;4301;48.362;8.478;2022-09-02T02:17:45;9.60;99.90
8527;DHT22;4301;48.362;8.478;2022-09-02T02:20:13;9.60;99.90
8527;DHT22;4301;48.362;8.478;2022-09-02T02:22:42;9.60;99.90
8527;DHT22;4301;48.362;8.478;2022-09-02T02:25:10;9.60;99.90
8527;DHT22;4301;48.362;8.478;2022-09-02T02:27:40;9.50;99.90
8527;DHT22;4301;48.362;8.478;2022-09-02T02:30:09;9.50;99.90
8527;DHT22;4301;48.362;8.478;2022-09-02T02:32:38;9.40;99.90
8527;DHT22;4301;48.362;8.478;2022-09-02T02:35:07;9.40;99.90
8527;DHT22;4301;48.362;8.478;2022-09-02T02:37:35;9.40;99.90
8527;DHT22;4301;48.362;8.478;2022-09-02T02:40:04;9.40;99.90
8527;DHT22;4301;48.362;8.478;2022-09-02T02:42:31;9.40;99.90
8527;DHT22;4301;48.362;8.478;2022-09-02T02:44:58;9.30;99.90
8527;DHT22;4301;48.362;8.478;2022-09-02T02:47:26;9.30;99.90
8527;DHT22;4301;48.362;8.478;2022-09-02T02:49:54;9.40;99.90
8527;DHT22;4301;48.362;8.478;2022-09-02T02:52:21;9.40;99.90
8527;DHT22;4301;48.362;8.478;2022-09-02T02:54:49;9.40;99.90
8527;DHT22;4301;48.362;8.478;2022-09-02T02:57:16;9.40;99.90
8527;DHT22;4301;48.362;8.478;2022-09-02T02:59:44;9.40;99.90
8527;DHT22;4301;48.362;8.478;2022-09-02T03:02:11;9.40;99.90
8527;DHT22;4301;48.362;8.478;2022-09-02T03:04:38;9.30;99.90
8527;DHT22;4301;48.362;8.478;2022-09-02T03:07:07;9.20;99.90
8527;DHT22;4301;48.362;8.478;2022-09-02T03:09:35;9.20;99.90
8527;DHT22;4301;48.362;8.478;2022-09-02T03:12:02;9.20;99.90
8527;DHT22;4301;48.362;8.478;2022-09-02T03:14:29;9.20;99.90
8527;DHT22;4301;48.362;8.478;2022-09-02T03:16:57;9.20;99.90
8527;DHT22;4301;48.362;8.478;2022-09-02T03:19:24;9.10;99.90
8527;DHT22;4301;48.362;8.478;2022-09-02T03:21:52;9.10;99.90
8527;DHT22;4301;48.362;8.478;2022-09-02T03:24:21;9.10;99.90
8527;DHT22;4301;48.362;8.478;2022-09-02T03:26:48;9.10;99.90
8527;DHT22;4301;48.362;8.478;2022-09-02T03:29:15;9.00;99.90
8527;DHT22;4301;48.362;8.478;2022-09-02T03:31:42;9.00;99.90
8527;DHT22;4301;48.362;8.478;2022-09-02T03:34:10;9.00;99.90
8527;DHT22;4301;48.362;8.478;2022-09-02T03:36:39;8.90;99.90
8527;DHT22;4301;48.362;8.478;2022-09-02T03:39:09;8.90;99.90
8527;DHT22;4301;48.362;8.478;2022-09-02T03:41:38;8.90;99.90
8527;DHT22;4301;48.362;8.478;2022-09-02T03:44:07;8.80;99.90
8527;DHT22;4301;48.362;8.478;2022-09-02T03:46:34;8.80;99.90
8527;DHT22;4301;48.362;8.478;2022-09-02T03:49:02;8.80;99.90
8527;DHT22;4301;48.362;8.478;2022-09-02T03:51:30;8.70;99.90
8527;DHT22;4301;48.362;8.478;2022-09-02T03:53:57;8.70;99.90
8527;DHT22;4301;48.362;8.478;2022-09-02T03:56:24;8.70;99.90
8527;DHT22;4301;48.362;8.478;2022-09-02T03:58:53;8.70;99.90
8527;DHT22;4301;48.362;8.478;2022-09-02T04:01:22;8.60;99.90
8527;DHT22;4301;48.362;8.478;2022-09-02T04:03:50;8.70;99.90
8527;DHT22;4301;48.362;8.478;2022-09-02T04:06:19;8.60;99.90
8527;DHT22;4301;48.362;8.478;2022-09-02T04:08:47;8.60;99.90
8527;DHT22;4301;48.362;8.478;2022-09-02T04:11:17;8.50;99.90
8527;DHT22;4301;48.362;8.478;2022-09-02T04:13:46;8.60;99.90
8527;DHT22;4301;48.362;8.478;2022-09-02T04:16:16;8.60;99.90
8527;DHT22;4301;48.362;8.478;2022-09-02T04:18:43;8.50;99.90
8527;DHT22;4301;48.362;8.478;2022-09-02T04:21:11;8.50;99.90
8527;DHT22;4301;48.362;8.478;2022-09-02T04:23:39;8.50;99.90
8527;DHT22;4301;48.362;8.478;2022-09-02T04:26:09;8.40;99.90
8527;DHT22;4301;48.362;8.478;2022-09-02T04:28:37;8.30;99.90
8527;DHT22;4301;48.362;8.478;2022-09-02T04:31:05;8.30;99.90
8527;DHT22;4301;48.362;8.478;2022-09-02T04:33:35;8.30;99.90
8527;DHT22;4301;48.362;8.478;2022-09-02T04:36:04;8.30;99.90
8527;DHT22;4301;48.362;8.478;2022-09-02T04:38:32;8.30;99.90
8527;DHT22;4301;48.362;8.478;2022-09-02T04:41:00;8.40;99.90
8527;DHT22;4301;48.362;8.478;2022-09-02T04:43:31;8.40;99.90
8527;DHT22;4301;48.362;8.478;2022-09-02T04:45:58;8.30;99.90
8527;DHT22;4301;48.362;8.478;2022-09-02T04:48:26;8.30;99.90
8527;DHT22;4301;48.362;8.478;2022-09-02T04:50:55;8.30;99.90
8527;DHT22;4301;48.362;8.478;2022-09-02T04:53:22;8.30;99.90
8527;DHT22;4301;48.362;8.478;2022-09-02T04:55:49;8.30;99.90
8527;DHT22;4301;48.362;8.478;2022-09-02T04:58:17;8.20;99.90
8527;DHT22;4301;48.362;8.478;2022-09-02T05:00:44;8.30;99.90
8527;DHT22;4301;48.362;8.478;2022-09-02T05:03:11;8.30;99.90
8527;DHT22;4301;48.362;8.478;2022-09-02T05:05:38;8.30;99.90
8527;DHT22;4301;48.362;8.478;2022-09-02T05:08:07;8.30;99.90
8527;DHT22;4301;48.362;8.478;2022-09-02T05:10:34;8.30;99.90
8527;DHT22;4301;48.362;8.478;2022-09-02T05:13:02;8.30;99.90
8527;DHT22;4301;48.362;8.478;2022-09-02T05:15:29;8.30;99.90
8527;DHT22;4301;48.362;8.478;2022-09-02T05:17:57;8.30;99.90
8527;DHT22;4301;48.362;8.478;2022-09-02T05:20:24;8.30;99.90
8527;DHT22;4301;48.362;8.478;2022-09-02T05:22:53;8.20;99.90
8527;DHT22;4301;48.362;8.478;2022-09-02T05:25:21;8.20;99.90
8527;DHT22;4301;48.362;8.478;2022-09-02T05:27:49;8.30;99.90
8527;DHT22;4301;48.362;8.478;2022-09-02T05:30:16;8.30;99.90
8527;DHT22;4301;48.362;8.478;2022-09-02T05:32:43;8.40;99.90
8527;DHT22;4301;48.362;8.478;2022-09-02T05:35:11;8.50;99.90
8527;DHT22;4301;48.362;8.478;2022-09-02T05:37:39;8.50;99.90
8527;DHT22;4301;48.362;8.478;2022-09-02T05:40:07;8.60;99.90
8527;DHT22;4301;48.362;8.478;2022-09-02T05:42:38;8.70;99.90
8527;DHT22;4301;48.362;8.478;2022-09-02T05:45:06;8.70;99.90
8527;DHT22;4301;48.362;8.478;2022-09-02T05:47:34;8.80;99.90
8527;DHT22;4301;48.362;8.478;2022-09-02T05:50:01;8.90;99.90
8527;DHT22;4301;48.362;8.478;2022-09-02T05:52:29;8.90;99.90
8527;DHT22;4301;48.362;8.478;2022-09-02T05:54:57;9.00;99.90
8527;DHT22;4301;48.362;8.478;2022-09-02T05:57:25;9.00;99.90
8527;DHT22;4301;48.362;8.478;2022-09-02T05:59:54;9.10;99.90
8527;DHT22;4301;48.362;8.478;2022-09-02T06:02:22;9.20;99.90
8527;DHT22;4301;48.362;8.478;2022-09-02T06:04:52;9.20;99.90
8527;DHT22;4301;48.362;8.478;2022-09-02T06:07:21;9.30;99.90
8527;DHT22;4301;48.362;8.478;2022-09-02T06:09:48;9.30;99.90
8527;DHT22;4301;48.362;8.478;2022-09-02T06:12:17;9.40;99.90
8527;DHT22;4301;48.362;8.478;2022-09-02T06:14:45;9.50;99.90
8527;DHT22;4301;48.362;8.478;2022-09-02T06:17:14;9.60;99.90
8527;DHT22;4301;48.362;8.478;2022-09-02T06:19:41;9.70;99.90
8527;DHT22;4301;48.362;8.478;2022-09-02T06:22:08;9.70;99.90
8527;DHT22;4301;48.362;8.478;2022-09-02T06:24:35;9.90;99.90
8527;DHT22;4301;48.362;8.478;2022-09-02T06:27:02;10.00;99.90
8527;DHT22;4301;48.362;8.478;2022-09-02T06:29:32;10.10;99.90
8527;DHT22;4301;48.362;8.478;2022-09-02T06:32:00;10.20;99.90
8527;DHT22;4301;48.362;8.478;2022-09-02T06:34:29;10.30;99.90
8527;DHT22;4301;48.362;8.478;2022-09-02T06:36:56;10.40;99.90
8527;DHT22;4301;48.362;8.478;2022-09-02T06:39:24;10.50;99.90
8527;DHT22;4301;48.362;8.478;2022-09-02T06:41:51;10.70;99.90
8527;DHT22;4301;48.362;8.478;2022-09-02T06:44:19;10.80;99.90
8527;DHT22;4301;48.362;8.478;2022-09-02T06:46:51;10.90;99.90
8527;DHT22;4301;48.362;8.478;2022-09-02T06:49:19;11.10;99.90
8527;DHT22;4301;48.362;8.478;2022-09-02T06:51:49;11.20;99.90
8527;DHT22;4301;48.362;8.478;2022-09-02T06:54:18;11.40;99.90
8527;DHT22;4301;48.362;8.478;2022-09-02T06:56:46;11.60;99.90
8527;DHT22;4301;48.362;8.478;2022-09-02T06:59:14;11.70;99.90
8527;DHT22;4301;48.362;8.478;2022-09-02T07:01:42;12.00;99.90
8527;DHT22;4301;48.362;8.478;2022-09-02T07:04:10;12.20;99.90
8527;DHT22;4301;48.362;8.478;2022-09-02T07:06:56;12.40;99.90
8527;DHT22;4301;48.362;8.478;2022-09-02T07:09:25;12.70;99.90
8527;DHT22;4301;48.362;8.478;2022-09-02T07:11:56;13.10;99.90
8527;DHT22;4301;48.362;8.478;2022-09-02T07:14:25;13.30;99.90
8527;DHT22;4301;48.362;8.478;2022-09-02T07:16:54;13.70;99.90
8527;DHT22;4301;48.362;8.478;2022-09-02T07:19:23;14.00;99.90
8527;DHT22;4301;48.362;8.478;2022-09-02T07:21:51;14.30;99.90
8527;DHT22;4301;48.362;8.478;2022-09-02T07:24:20;14.60;99.90
8527;DHT22;4301;48.362;8.478;2022-09-02T07:26:48;14.90;99.90
8527;DHT22;4301;48.362;8.478;2022-09-02T07:29:15;15.20;99.90
8527;DHT22;4301;48.362;8.478;2022-09-02T07:31:45;15.40;99.90
8527;DHT22;4301;48.362;8.478;2022-09-02T07:34:13;15.70;99.90
8527;DHT22;4301;48.362;8.478;2022-09-02T07:36:40;16.00;99.90
8527;DHT22;4301;48.362;8.478;2022-09-02T07:39:09;16.00;99.90
8527;DHT22;4301;48.362;8.478;2022-09-02T07:41:39;16.20;99.90
8527;DHT22;4301;48.362;8.478;2022-09-02T07:44:07;16.40;99.90
8527;DHT22;4301;48.362;8.478;2022-09-02T07:46:35;16.60;99.90
8527;DHT22;4301;48.362;8.478;2022-09-02T07:49:05;17.00;99.90
8527;DHT22;4301;48.362;8.478;2022-09-02T07:51:33;17.10;99.90
8527;DHT22;4301;48.362;8.478;2022-09-02T07:54:01;17.10;99.90
8527;DHT22;4301;48.362;8.478;2022-09-02T07:56:28;17.00;99.90
8527;DHT22;4301;48.362;8.478;2022-09-02T07:58:57;16.90;99.90
8527;DHT22;4301;48.362;8.478;2022-09-02T08:01:24;16.70;99.90
8527;DHT22;4301;48.362;8.478;2022-09-02T08:03:52;16.90;99.90
8527;DHT22;4301;48.362;8.478;2022-09-02T08:06:20;17.30;99.90
8527;DHT22;4301;48.362;8.478;2022-09-02T08:08:49;17.50;99.90
8527;DHT22;4301;48.362;8.478;2022-09-02T08:11:16;17.80;99.90
8527;DHT22;4301;48.362;8.478;2022-09-02T08:13:43;18.10;99.90
8527;DHT22;4301;48.362;8.478;2022-09-02T08:16:12;18.40;99.90
8527;DHT22;4301;48.362;8.478;2022-09-02T08:18:39;18.50;99.90
8527;DHT22;4301;48.362;8.478;2022-09-02T08:21:07;18.60;99.90
8527;DHT22;4301;48.362;8.478;2022-09-02T08:23:34;19.00;99.90
8527;DHT22;4301;48.362;8.478;2022-09-02T08:26:02;19.40;99.90
8527;DHT22;4301;48.362;8.478;2022-09-02T08:28:30;19.40;99.90
8527;DHT22;4301;48.362;8.478;2022-09-02T08:30:57;19.50;99.90
8527;DHT22;4301;48.362;8.478;2022-09-02T08:33:26;19.60;99.90
8527;DHT22;4301;48.362;8.478;2022-09-02T08:35:53;19.90;99.90
8527;DHT22;4301;48.362;8.478;2022-09-02T08:38:21;19.80;99.90
8527;DHT22;4301;48.362;8.478;2022-09-02T08:40:48;19.80;99.90
8527;DHT22;4301;48.362;8.478;2022-09-02T08:43:27;19.80;99.90
8527;DHT22;4301;48.362;8.478;2022-09-02T08:45:59;20.50;99.90
8527;DHT22;4301;48.362;8.478;2022-09-02T08:48:36;20.90;99.90
8527;DHT22;4301;48.362;8.478;2022-09-02T08:51:08;21.20;99.90
8527;DHT22;4301;48.362;8.478;2022-09-02T08:53:45;21.20;99.90
8527;DHT22;4301;48.362;8.478;2022-09-02T08:56:15;21.50;99.90
8527;DHT22;4301;48.362;8.478;2022-09-02T08:58:47;21.70;99.90
8527;DHT22;4301;48.362;8.478;2022-09-02T09:01:23;22.20;99.90
8527;DHT22;4301;48.362;8.478;2022-09-02T09:04:15;22.40;99.90
8527;DHT22;4301;48.362;8.478;2022-09-02T09:06:56;22.60;99.90
8527;DHT22;4301;48.362;8.478;2022-09-02T09:09:30;23.20;99.90
8527;DHT22;4301;48.362;8.478;2022-09-02T09:12:07;23.80;99.90
8527;DHT22;4301;48.362;8.478;2022-09-02T09:14:41;24.40;99.90
8527;DHT22;4301;48.362;8.478;2022-09-02T09:17:15;24.80;99.90
8527;DHT22;4301;48.362;8.478;2022-09-02T09:19:50;25.00;99.90
8527;DHT22;4301;48.362;8.478;2022-09-02T09:22:20;24.90;99.90
8527;DHT22;4301;48.362;8.478;2022-09-02T09:24:48;25.30;99.40
8527;DHT22;4301;48.362;8.478;2022-09-02T09:27:17;25.50;97.80
8527;DHT22;4301;48.362;8.478;2022-09-02T09:29:45;25.40;96.20
8527;DHT22;4301;48.362;8.478;2022-09-02T09:32:20;25.20;94.70
8527;DHT22;4301;48.362;8.478;2022-09-02T09:35:03;25.40;96.10
8527;DHT22;4301;48.362;8.478;2022-09-02T09:37:34;25.40;93.40
8527;DHT22;4301;48.362;8.478;2022-09-02T09:40:21;24.70;93.30
8527;DHT22;4301;48.362;8.478;2022-09-02T09:42:53;25.00;93.40
8527;DHT22;4301;48.362;8.478;2022-09-02T09:45:27;25.30;94.90
8527;DHT22;4301;48.362;8.478;2022-09-02T09:48:18;25.30;91.70
8527;DHT22;4301;48.362;8.478;2022-09-02T09:51:10;25.50;91.90
8527;DHT22;4301;48.362;8.478;2022-09-02T09:53:37;26.40;93.20
8527;DHT22;4301;48.362;8.478;2022-09-02T09:56:06;27.00;91.90
8527;DHT22;4301;48.362;8.478;2022-09-02T09:58:49;27.20;89.90
8527;DHT22;4301;48.362;8.478;2022-09-02T10:01:18;27.40;86.20
8527;DHT22;4301;48.362;8.478;2022-09-02T10:03:49;27.20;84.90
8527;DHT22;4301;48.362;8.478;2022-09-02T10:06:20;27.10;85.10
8527;DHT22;4301;48.362;8.478;2022-09-02T10:08:53;27.60;84.10
8527;DHT22;4301;48.362;8.478;2022-09-02T10:11:23;27.80;84.20
8527;DHT22;4301;48.362;8.478;2022-09-02T10:13:55;28.00;80.90
8527;DHT22;4301;48.362;8.478;2022-09-02T10:16:45;28.30;85.00
8527;DHT22;4301;48.362;8.478;2022-09-02T10:19:23;28.90;79.30
8527;DHT22;4301;48.362;8.478;2022-09-02T10:22:31;28.50;78.80
8527;DHT22;4301;48.362;8.478;2022-09-02T10:25:09;28.70;77.60
8527;DHT22;4301;48.362;8.478;2022-09-02T10:27:51;29.10;76.50
8527;DHT22;4301;48.362;8.478;2022-09-02T10:30:22;29.60;74.30
8527;DHT22;4301;48.362;8.478;2022-09-02T10:33:09;29.30;71.40
8527;DHT22;4301;48.362;8.478;2022-09-02T10:35:41;28.60;72.70
8527;DHT22;4301;48.362;8.478;2022-09-02T10:38:31;29.20;76.60
8527;DHT22;4301;48.362;8.478;2022-09-02T10:41:10;29.60;73.30
8527;DHT22;4301;48.362;8.478;2022-09-02T10:43:53;30.30;70.00
8527;DHT22;4301;48.362;8.478;2022-09-02T10:46:24;30.00;69.60
8527;DHT22;4301;48.362;8.478;2022-09-02T10:48:58;30.10;67.90
8527;DHT22;4301;48.362;8.478;2022-09-02T10:51:34;30.60;69.20
8527;DHT22;4301;48.362;8.478;2022-09-02T10:54:18;31.30;68.10
8527;DHT22;4301;48.362;8.478;2022-09-02T10:56:52;31.50;67.70
8527;DHT22;4301;48.362;8.478;2022-09-02T10:59:24;31.50;64.90
8527;DHT22;4301;48.362;8.478;2022-09-02T11:01:59;31.50;62.90
8527;DHT22;4301;48.362;8.478;2022-09-02T11:04:36;31.50;64.20
8527;DHT22;4301;48.362;8.478;2022-09-02T11:07:07;31.90;64.20
8527;DHT22;4301;48.362;8.478;2022-09-02T11:09:42;31.30;62.20
8527;DHT22;4301;48.362;8.478;2022-09-02T11:12:14;31.50;63.70
8527;DHT22;4301;48.362;8.478;2022-09-02T11:14:52;31.70;63.40
8527;DHT22;4301;48.362;8.478;2022-09-02T11:17:23;31.90;62.20
8527;DHT22;4301;48.362;8.478;2022-09-02T11:19:57;31.90;62.50
8527;DHT22;4301;48.362;8.478;2022-09-02T11:22:33;31.60;60.00
8527;DHT22;4301;48.362;8.478;2022-09-02T11:25:08;31.50;60.90
8527;DHT22;4301;48.362;8.478;2022-09-02T11:27:39;31.30;62.30
8527;DHT22;4301;48.362;8.478;2022-09-02T11:30:11;32.00;61.30
8527;DHT22;4301;48.362;8.478;2022-09-02T11:32:44;32.50;60.70
8527;DHT22;4301;48.362;8.478;2022-09-02T11:35:18;32.70;60.00
8527;DHT22;4301;48.362;8.478;2022-09-02T11:37:48;32.80;59.70
8527;DHT22;4301;48.362;8.478;2022-09-02T11:40:23;32.90;58.60
8527;DHT22;4301;48.362;8.478;2022-09-02T11:43:16;32.90;58.10
8527;DHT22;4301;48.362;8.478;2022-09-02T11:46:02;32.20;56.40
8527;DHT22;4301;48.362;8.478;2022-09-02T11:48:58;32.30;57.70
8527;DHT22;4301;48.362;8.478;2022-09-02T11:51:57;31.70;57.70
8527;DHT22;4301;48.362;8.478;2022-09-02T11:54:31;32.60;58.00
8527;DHT22;4301;48.362;8.478;2022-09-02T11:57:02;32.60;56.70
8527;DHT22;4301;48.362;8.478;2022-09-02T12:02:45;32.80;57.70
8527;DHT22;4301;48.362;8.478;2022-09-02T12:05:46;32.30;57.90
8527;DHT22;4301;48.362;8.478;2022-09-02T12:21:14;32.80;57.30
8527;DHT22;4301;48.362;8.478;2022-09-02T12:24:02;33.20;56.40
8527;DHT22;4301;48.362;8.478;2022-09-02T12:27:03;33.40;56.10
8527;DHT22;4301;48.362;8.478;2022-09-02T12:29:32;33.70;55.00
8527;DHT22;4301;48.362;8.478;2022-09-02T12:32:00;33.70;55.40
8527;DHT22;4301;48.362;8.478;2022-09-02T12:34:55;33.70;53.70
8527;DHT22;4301;48.362;8.478;2022-09-02T12:37:56;33.40;54.10
8527;DHT22;4301;48.362;8.478;2022-09-02T12:40:29;33.70;54.40
8527;DHT22;4301;48.362;8.478;2022-09-02T12:43:01;33.50;55.40
8527;DHT22;4301;48.362;8.478;2022-09-02T12:45:31;33.60;54.90
8527;DHT22;4301;48.362;8.478;2022-09-02T12:48:05;33.50;55.30
8527;DHT22;4301;48.362;8.478;2022-09-02T12:50:52;33.50;53.60
8527;DHT22;4301;48.362;8.478;2022-09-02T12:53:32;34.00;53.20
8527;DHT22;4301;48.362;8.478;2022-09-02T12:56:03;33.70;55.10
8527;DHT22;4301;48.362;8.478;2022-09-02T12:58:34;33.60;54.70
8527;DHT22;4301;48.362;8.478;2022-09-02T13:01:15;33.10;53.20
8527;DHT22;4301;48.362;8.478;2022-09-02T13:10:14;33.30;52.10
8527;DHT22;4301;48.362;8.478;2022-09-02T13:13:18;33.10;53.00
8527;DHT22;4301;48.362;8.478;2022-09-02T13:16:10;33.00;52.60
8527;DHT22;4301;48.362;8.478;2022-09-02T13:19:21;33.60;52.70
8527;DHT22;4301;48.362;8.478;2022-09-02T13:22:17;33.60;51.70
8527;DHT22;4301;48.362;8.478;2022-09-02T13:25:28;33.20;52.30
8527;DHT22;4301;48.362;8.478;2022-09-02T13:31:18;33.50;51.00
8527;DHT22;4301;48.362;8.478;2022-09-02T13:33:46;32.40;51.40
8527;DHT22;4301;48.362;8.478;2022-09-02T13:36:25;32.70;51.00
8527;DHT22;4301;48.362;8.478;2022-09-02T13:38:53;32.60;51.30
8527;DHT22;4301;48.362;8.478;2022-09-02T13:41:29;32.90;53.50
8527;DHT22;4301;48.362;8.478;2022-09-02T13:44:08;33.10;53.00
8527;DHT22;4301;48.362;8.478;2022-09-02T13:46:46;32.90;51.80
8527;DHT22;4301;48.362;8.478;2022-09-02T13:49:22;32.50;52.50
8527;DHT22;4301;48.362;8.478;2022-09-02T13:51:52;32.50;52.00
8527;DHT22;4301;48.362;8.478;2022-09-02T13:54:32;32.10;52.50
8527;DHT22;4301;48.362;8.478;2022-09-02T13:57:03;32.00;52.70
8527;DHT22;4301;48.362;8.478;2022-09-02T13:59:36;31.90;53.40
8527;DHT22;4301;48.362;8.478;2022-09-02T14:02:19;31.30;55.00
8527;DHT22;4301;48.362;8.478;2022-09-02T14:04:49;31.40;54.10
8527;DHT22;4301;48.362;8.478;2022-09-02T14:07:20;31.30;52.30
8527;DHT22;4301;48.362;8.478;2022-09-02T14:09:50;31.60;54.10
8527;DHT22;4301;48.362;8.478;2022-09-02T14:12:19;31.20;54.60
8527;DHT22;4301;48.362;8.478;2022-09-02T14:14:47;31.30;54.00
8527;DHT22;4301;48.362;8.478;2022-09-02T14:17:18;31.10;52.70
8527;DHT22;4301;48.362;8.478;2022-09-02T14:19:46;31.10;56.00
8527;DHT22;4301;48.362;8.478;2022-09-02T14:22:23;31.00;54.10
8527;DHT22;4301;48.362;8.478;2022-09-02T14:24:52;30.90;54.90
8527;DHT22;4301;48.362;8.478;2022-09-02T14:27:22;30.80;55.10
8527;DHT22;4301;48.362;8.478;2022-09-02T14:29:53;30.20;52.90
8527;DHT22;4301;48.362;8.478;2022-09-02T14:32:22;29.80;54.20
8527;DHT22;4301;48.362;8.478;2022-09-02T14:35:08;29.70;57.20
8527;DHT22;4301;48.362;8.478;2022-09-02T14:37:47;29.80;58.30
8527;DHT22;4301;48.362;8.478;2022-09-02T14:40:15;30.00;56.80
8527;DHT22;4301;48.362;8.478;2022-09-02T14:42:50;29.70;57.70
8527;DHT22;4301;48.362;8.478;2022-09-02T14:45:25;29.50;57.10
8527;DHT22;4301;48.362;8.478;2022-09-02T14:47:53;29.30;55.80
8527;DHT22;4301;48.362;8.478;2022-09-02T14:50:23;29.50;55.60
8527;DHT22;4301;48.362;8.478;2022-09-02T14:52:54;29.30;57.80
8527;DHT22;4301;48.362;8.478;2022-09-02T14:55:46;29.30;55.80
8527;DHT22;4301;48.362;8.478;2022-09-02T14:58:16;28.90;57.80
8527;DHT22;4301;48.362;8.478;2022-09-02T15:00:45;28.90;57.10
8527;DHT22;4301;48.362;8.478;2022-09-02T15:03:14;28.90;58.10
8527;DHT22;4301;48.362;8.478;2022-09-02T15:05:42;28.60;57.60
8527;DHT22;4301;48.362;8.478;2022-09-02T15:08:09;28.50;58.70
8527;DHT22;4301;48.362;8.478;2022-09-02T15:10:37;28.70;59.10
8527;DHT22;4301;48.362;8.478;2022-09-02T15:13:06;28.40;59.60
8527;DHT22;4301;48.362;8.478;2022-09-02T15:15:38;28.40;58.60
8527;DHT22;4301;48.362;8.478;2022-09-02T15:18:05;28.30;60.20
8527;DHT22;4301;48.362;8.478;2022-09-02T15:20:33;28.10;59.40
8527;DHT22;4301;48.362;8.478;2022-09-02T15:23:00;27.70;61.30
8527;DHT22;4301;48.362;8.478;2022-09-02T15:25:28;27.40;59.80
8527;DHT22;4301;48.362;8.478;2022-09-02T15:27:55;27.20;61.20
8527;DHT22;4301;48.362;8.478;2022-09-02T15:30:22;27.00;60.70
8527;DHT22;4301;48.362;8.478;2022-09-02T15:32:51;27.20;62.50
8527;DHT22;4301;48.362;8.478;2022-09-02T15:35:18;27.20;62.00
8527;DHT22;4301;48.362;8.478;2022-09-02T15:37:48;27.40;62.30
8527;DHT22;4301;48.362;8.478;2022-09-02T15:40:16;27.50;60.50
8527;DHT22;4301;48.362;8.478;2022-09-02T15:42:43;27.40;60.70
8527;DHT22;4301;48.362;8.478;2022-09-02T15:45:10;27.30;62.10
8527;DHT22;4301;48.362;8.478;2022-09-02T15:47:37;27.20;62.00
8527;DHT22;4301;48.362;8.478;2022-09-02T15:50:07;27.10;61.60
8527;DHT22;4301;48.362;8.478;2022-09-02T15:52:35;27.00;62.80
8527;DHT22;4301;48.362;8.478;2022-09-02T15:55:04;27.10;61.90
8527;DHT22;4301;48.362;8.478;2022-09-02T15:57:31;27.10;62.90
8527;DHT22;4301;48.362;8.478;2022-09-02T15:59:58;26.90;64.00
8527;DHT22;4301;48.362;8.478;2022-09-02T16:02:26;26.50;64.20
8527;DHT22;4301;48.362;8.478;2022-09-02T16:04:53;26.40;65.10
8527;DHT22;4301;48.362;8.478;2022-09-02T16:07:22;26.20;65.00
8527;DHT22;4301;48.362;8.478;2022-09-02T16:09:49;26.00;65.70
8527;DHT22;4301;48.362;8.478;2022-09-02T16:12:16;26.00;65.40
8527;DHT22;4301;48.362;8.478;2022-09-02T16:14:43;25.80;66.80
8527;DHT22;4301;48.362;8.478;2022-09-02T16:17:15;25.70;67.50
8527;DHT22;4301;48.362;8.478;2022-09-02T16:19:42;25.50;67.20
8527;DHT22;4301;48.362;8.478;2022-09-02T16:22:10;25.30;67.40
8527;DHT22;4301;48.362;8.478;2022-09-02T16:24:38;25.00;69.90
8527;DHT22;4301;48.362;8.478;2022-09-02T16:27:05;25.00;70.80
8527;DHT22;4301;48.362;8.478;2022-09-02T16:29:34;24.80;70.40
8527;DHT22;4301;48.362;8.478;2022-09-02T16:32:03;24.60;70.80
8527;DHT22;4301;48.362;8.478;2022-09-02T16:34:30;24.60;71.80
8527;DHT22;4301;48.362;8.478;2022-09-02T16:36:58;24.40;71.00
8527;DHT22;4301;48.362;8.478;2022-09-02T16:39:25;24.20;75.40
8527;DHT22;4301;48.362;8.478;2022-09-02T16:41:54;24.00;75.00
8527;DHT22;4301;48.362;8.478;2022-09-02T16:44:23;23.80;77.80
8527;DHT22;4301;48.362;8.478;2022-09-02T16:46:52;23.60;76.10
8527;DHT22;4301;48.362;8.478;2022-09-02T16:49:20;23.40;76.80
8527;DHT22;4301;48.362;8.478;2022-09-02T16:51:49;23.30;77.40
8527;DHT22;4301;48.362;8.478;2022-09-02T16:54:17;23.30;77.00
8527;DHT22;4301;48.362;8.478;2022-09-02T16:56:45;23.20;80.70
8527;DHT22;4301;48.362;8.478;2022-09-02T16:59:14;23.00;83.40